createdAt,value
2023-04-28T00:00:36.630Z,52.76
2023-04-28T00:03:06.336Z,53.15
2023-04-28T00:05:33.619Z,53.04
2023-04-28T00:08:03.423Z,53.53
2023-04-28T00:10:31.336Z,53.69
2023-04-28T00:13:00.776Z,54.06
2023-04-28T00:15:29.880Z,54.58
2023-04-28T00:17:56.659Z,54.85
2023-04-28T00:20:23.862Z,55.10
2023-04-28T00:22:53.186Z,55.11
2023-04-28T00:25:20.023Z,55.08
2023-04-28T00:27:49.213Z,55.74
2023-04-28T00:30:18.962Z,55.79
2023-04-28T00:32:47.927Z,56.00
2023-04-28T00:35:14.825Z,56.49
2023-04-28T00:37:42.073Z,57.03
2023-04-28T00:40:10.005Z,57.12
2023-04-28T00:42:36.760Z,57.27
2023-04-28T00:45:07.693Z,57.47
2023-04-28T00:47:35.397Z,57.72
2023-04-28T00:50:06.238Z,57.88
2023-04-28T00:52:33.076Z,57.96
2023-04-28T00:54:59.999Z,58.46
2023-04-28T00:57:27.209Z,58.62
2023-04-28T00:59:57.463Z,58.41
2023-04-28T01:02:24.921Z,58.95
2023-04-28T01:04:52.780Z,58.87
2023-04-28T01:07:19.569Z,58.92
2023-04-28T01:09:48.071Z,59.30
2023-04-28T01:12:15.383Z,59.27
2023-04-28T01:14:42.532Z,58.99
2023-04-28T01:17:10.706Z,59.33
2023-04-28T01:19:40.203Z,59.49
2023-04-28T01:22:07.058Z,59.52
2023-04-28T01:24:34.010Z,59.79
2023-04-28T01:27:01.048Z,59.41
2023-04-28T01:29:28.869Z,59.62
2023-04-28T01:31:57.969Z,60.36
2023-04-28T01:34:24.993Z,60.39
2023-04-28T01:36:52.137Z,60.25
2023-04-28T01:39:19.601Z,60.37
2023-04-28T01:41:46.743Z,60.65
2023-04-28T01:44:13.712Z,60.51
2023-04-28T01:46:40.751Z,61.02
2023-04-28T01:49:08.010Z,60.91
2023-04-28T01:51:38.084Z,60.36
2023-04-28T01:54:04.890Z,60.57
2023-04-28T01:56:33.803Z,60.73
2023-04-28T01:59:00.529Z,60.77
2023-04-28T02:01:27.245Z,60.89
2023-04-28T02:03:56.585Z,61.35
2023-04-28T02:06:23.748Z,61.57
2023-04-28T02:08:53.068Z,60.93
2023-04-28T02:11:22.062Z,60.99
2023-04-28T02:13:48.908Z,61.24
2023-04-28T02:16:16.237Z,61.71
2023-04-28T02:18:43.110Z,61.82
2023-04-28T02:21:13.738Z,61.77
2023-04-28T02:23:43.344Z,62.05
2023-04-28T02:26:13.367Z,62.09
2023-04-28T02:28:45.170Z,61.72
2023-04-28T02:31:13.999Z,62.07
2023-04-28T02:33:42.693Z,62.16
2023-04-28T02:36:12.710Z,62.28
2023-04-28T02:38:41.735Z,62.23
2023-04-28T02:41:11.844Z,62.54
2023-04-28T02:43:38.873Z,62.88
2023-04-28T02:46:06.005Z,62.72
2023-04-28T02:48:37.556Z,63.14
2023-04-28T02:51:04.444Z,63.00
2023-04-28T02:53:31.391Z,63.23
2023-04-28T02:55:58.450Z,63.52
2023-04-28T02:58:27.677Z,63.47
2023-04-28T03:00:57.008Z,64.05
2023-04-28T03:03:23.962Z,63.46
2023-04-28T03:05:53.602Z,63.69
2023-04-28T03:08:23.082Z,63.95
2023-04-28T03:10:50.060Z,63.96
2023-04-28T03:13:16.757Z,63.92
2023-04-28T03:15:43.977Z,64.17
2023-04-28T03:18:10.838Z,64.27
2023-04-28T03:20:37.679Z,64.29
2023-04-28T03:23:04.745Z,64.49
2023-04-28T03:25:31.724Z,64.45
2023-04-28T03:27:58.622Z,64.35
2023-04-28T03:30:25.399Z,64.49
2023-04-28T03:32:52.344Z,64.64
2023-04-28T03:35:19.137Z,64.91
2023-04-28T03:37:45.866Z,65.34
2023-04-28T03:40:12.938Z,65.42
2023-04-28T03:42:39.663Z,65.61
2023-04-28T03:45:07.180Z,65.58
2023-04-28T03:47:36.946Z,65.75
2023-04-28T03:50:03.986Z,65.94
2023-04-28T03:52:33.200Z,66.28
2023-04-28T03:54:59.896Z,66.12
2023-04-28T03:57:26.604Z,66.02
2023-04-28T03:59:53.345Z,66.24
2023-04-28T04:02:20.326Z,66.60
2023-04-28T04:04:47.405Z,66.61
2023-04-28T04:07:14.401Z,66.87
2023-04-28T04:09:41.957Z,66.91
2023-04-28T04:12:08.752Z,66.92
2023-04-28T04:14:35.445Z,67.42
2023-04-28T04:17:02.419Z,67.30
2023-04-28T04:19:29.372Z,67.44
2023-04-28T04:21:56.820Z,67.85
2023-04-28T04:24:23.665Z,67.81
2023-04-28T04:26:50.486Z,67.84
2023-04-28T04:29:17.204Z,68.11
2023-04-28T04:31:45.508Z,68.43
2023-04-28T04:34:12.478Z,67.99
2023-04-28T04:36:39.634Z,67.99
2023-04-28T04:39:06.717Z,68.33
2023-04-28T04:41:36.098Z,68.58
2023-04-28T04:44:02.951Z,68.41
2023-04-28T04:46:34.900Z,68.61
2023-04-28T04:49:01.942Z,68.72
2023-04-28T04:51:28.750Z,69.39
2023-04-28T04:53:55.750Z,69.20
2023-04-28T04:56:23.389Z,68.99
2023-04-28T04:58:52.592Z,69.45
2023-04-28T05:01:25.770Z,69.68
2023-04-28T05:03:53.058Z,70.10
2023-04-28T05:06:36.071Z,69.99
2023-04-28T05:09:03.334Z,70.22
2023-04-28T05:11:38.343Z,70.73
2023-04-28T05:14:09.987Z,70.75
2023-04-28T05:16:37.886Z,70.56
2023-04-28T05:19:05.454Z,71.13
2023-04-28T05:21:33.055Z,70.85
2023-04-28T05:24:03.124Z,70.90
2023-04-28T05:26:34.470Z,71.12
2023-04-28T05:29:01.376Z,71.10
2023-04-28T05:31:29.180Z,71.31
2023-04-28T05:33:56.351Z,71.33
2023-04-28T05:36:24.718Z,71.03
2023-04-28T05:38:51.933Z,71.24
2023-04-28T05:41:18.917Z,71.61
2023-04-28T05:43:51.595Z,71.20
2023-04-28T05:46:29.904Z,71.35
2023-04-28T05:49:03.886Z,71.45
2023-04-28T05:51:31.342Z,71.42
2023-04-28T05:53:58.686Z,71.52
2023-04-28T05:56:30.100Z,71.55
2023-04-28T05:58:59.132Z,71.67
2023-04-28T06:01:26.858Z,72.18
2023-04-28T06:03:56.320Z,72.21
2023-04-28T06:06:23.959Z,71.87
2023-04-28T06:08:50.984Z,71.94
2023-04-28T06:11:22.901Z,71.93
2023-04-28T06:13:52.586Z,71.95
2023-04-28T06:16:24.936Z,71.77
2023-04-28T06:18:51.949Z,71.99
2023-04-28T06:21:21.862Z,71.90
2023-04-28T06:24:03.204Z,72.12
2023-04-28T06:26:35.131Z,72.22
2023-04-28T06:29:02.723Z,71.99
2023-04-28T06:31:30.042Z,72.21
2023-04-28T06:33:57.288Z,72.29
2023-04-28T06:36:27.284Z,72.63
2023-04-28T06:38:58.182Z,72.80
2023-04-28T06:41:34.658Z,73.14
2023-04-28T06:44:01.749Z,72.94
2023-04-28T06:46:31.792Z,73.19
2023-04-28T06:48:59.808Z,73.36
2023-04-28T06:51:27.880Z,73.50
2023-04-28T06:53:55.080Z,73.35
2023-04-28T06:56:22.453Z,73.46
2023-04-28T06:58:49.935Z,73.20
2023-04-28T07:01:17.674Z,73.34
2023-04-28T07:03:47.266Z,73.39
2023-04-28T07:06:18.637Z,73.36
2023-04-28T07:08:45.463Z,73.63
2023-04-28T07:11:12.650Z,73.45
2023-04-28T07:13:39.783Z,72.57
2023-04-28T07:16:10.455Z,72.14
2023-04-28T07:18:38.370Z,72.58
2023-04-28T07:21:05.839Z,72.74
2023-04-28T07:23:36.495Z,72.53
2023-04-28T07:26:05.888Z,72.63
2023-04-28T07:28:32.856Z,72.87
2023-04-28T07:30:59.889Z,73.37
2023-04-28T07:33:26.846Z,74.10
2023-04-28T07:35:56.100Z,74.61
2023-04-28T07:38:23.201Z,74.80
2023-04-28T07:40:58.192Z,75.49
2023-04-28T07:43:28.192Z,75.67
2023-04-28T07:46:02.910Z,75.97
2023-04-28T07:48:36.045Z,76.34
2023-04-28T07:51:02.974Z,76.20
2023-04-28T07:53:29.888Z,76.53
2023-04-28T07:55:59.688Z,76.63
2023-04-28T07:58:29.186Z,76.72
2023-04-28T08:00:58.182Z,76.82
2023-04-28T08:03:25.045Z,76.62
2023-04-28T08:05:51.814Z,76.73
2023-04-28T08:08:18.702Z,76.44
2023-04-28T08:10:45.985Z,76.53
2023-04-28T08:13:12.961Z,76.53
2023-04-28T08:15:41.666Z,76.15
2023-04-28T08:18:08.620Z,75.84
2023-04-28T08:20:37.396Z,76.08
2023-04-28T08:23:04.004Z,76.20
2023-04-28T08:25:30.908Z,76.42
2023-04-28T08:27:57.890Z,76.97
2023-04-28T08:30:24.636Z,77.58
2023-04-28T08:32:51.394Z,77.72
2023-04-28T08:35:19.446Z,77.91
2023-04-28T08:37:46.544Z,78.08
2023-04-28T08:40:16.029Z,78.53
2023-04-28T08:42:45.973Z,78.50
2023-04-28T08:45:16.633Z,78.68
2023-04-28T08:47:50.152Z,78.83
2023-04-28T08:50:24.903Z,79.08
2023-04-28T08:52:53.755Z,78.86
2023-04-28T08:55:25.985Z,79.14
2023-04-28T08:57:55.160Z,79.31
2023-04-28T09:00:22.980Z,79.80
2023-04-28T09:02:51.607Z,79.85
2023-04-28T09:05:19.294Z,79.58
2023-04-28T09:07:49.305Z,79.90
2023-04-28T09:10:28.225Z,80.11
2023-04-28T09:12:58.749Z,79.91
2023-04-28T09:15:41.804Z,79.89
2023-04-28T09:18:09.934Z,80.04
2023-04-28T09:20:38.465Z,79.74
2023-04-28T09:23:18.733Z,80.17
2023-04-28T09:26:08.685Z,80.08
2023-04-28T09:28:36.809Z,80.19
2023-04-28T09:31:05.539Z,80.33
2023-04-28T09:33:33.262Z,80.46
2023-04-28T09:36:01.328Z,81.17
2023-04-28T09:38:28.770Z,81.31
2023-04-28T09:40:59.161Z,81.82
2023-04-28T09:43:34.612Z,82.09
2023-04-28T09:46:09.006Z,82.16
2023-04-28T09:48:38.669Z,82.55
2023-04-28T09:51:06.800Z,82.64
2023-04-28T09:53:34.372Z,82.72
2023-04-28T09:56:03.613Z,82.94
2023-04-28T09:58:32.251Z,82.62
2023-04-28T10:01:01.385Z,82.82
2023-04-28T10:03:31.265Z,82.82
2023-04-28T10:06:01.273Z,82.70
2023-04-28T10:08:30.160Z,82.35
2023-04-28T10:10:59.669Z,81.92
2023-04-28T10:13:29.439Z,82.05
2023-04-28T10:15:58.818Z,81.84
2023-04-28T10:18:25.906Z,82.12
2023-04-28T10:21:01.079Z,82.49
2023-04-28T10:23:52.902Z,82.27
2023-04-28T10:26:21.946Z,82.03
2023-04-28T10:28:51.073Z,82.78
2023-04-28T10:31:22.166Z,83.23
2023-04-28T10:33:52.339Z,83.18
2023-04-28T10:36:50.807Z,83.68
2023-04-28T10:39:17.496Z,83.69
2023-04-28T10:41:47.642Z,84.32
2023-04-28T10:44:33.094Z,84.68
2023-04-28T10:47:04.557Z,84.71
2023-04-28T10:49:57.664Z,84.98
2023-04-28T10:52:33.579Z,85.09
2023-04-28T10:55:28.991Z,85.41
2023-04-28T10:58:15.891Z,85.39
2023-04-28T11:00:48.207Z,85.64
2023-04-28T11:03:39.540Z,85.84
2023-04-28T11:06:32.564Z,86.06
2023-04-28T11:09:04.104Z,85.87
2023-04-28T11:11:33.541Z,86.37
2023-04-28T11:14:18.597Z,86.49
2023-04-28T11:16:54.203Z,86.50
2023-04-28T11:19:22.126Z,86.63
2023-04-28T11:21:52.387Z,87.06
2023-04-28T11:24:19.088Z,87.40
2023-04-28T11:26:48.866Z,87.63
2023-04-28T11:29:21.290Z,87.49
2023-04-28T11:31:53.950Z,87.68
2023-04-28T11:34:22.216Z,87.90
2023-04-28T11:36:54.897Z,88.07
2023-04-28T11:39:30.311Z,88.11
2023-04-28T11:41:58.361Z,88.11
2023-04-28T11:44:27.572Z,88.50
2023-04-28T11:46:57.364Z,88.60
2023-04-28T11:49:28.963Z,88.82
2023-04-28T11:51:56.329Z,88.41
2023-04-28T11:54:32.490Z,88.54
2023-04-28T11:57:01.166Z,88.38
2023-04-28T11:59:30.043Z,88.18
2023-04-28T12:01:59.412Z,87.96
2023-04-28T12:04:36.449Z,88.49
2023-04-28T12:07:14.384Z,88.25
2023-04-28T12:09:43.897Z,88.28
2023-04-28T12:12:12.954Z,88.65
2023-04-28T12:15:02.590Z,88.79
2023-04-28T12:17:43.188Z,88.82
2023-04-28T12:20:11.932Z,89.04
2023-04-28T12:22:47.013Z,89.39
2023-04-28T12:25:16.753Z,89.45
2023-04-28T12:28:00.634Z,89.75
2023-04-28T12:30:28.270Z,89.58
2023-04-28T12:32:56.136Z,89.35
2023-04-28T12:35:24.782Z,89.60
2023-04-28T12:37:58.622Z,89.45
2023-04-28T12:40:27.534Z,89.50
2023-04-28T12:42:54.201Z,89.39
2023-04-28T12:45:20.870Z,88.89
2023-04-28T12:47:49.904Z,89.01
2023-04-28T12:50:16.779Z,88.83
2023-04-28T12:52:43.668Z,88.95
2023-04-28T12:55:10.522Z,88.96
2023-04-28T12:57:39.466Z,88.78
2023-04-28T13:00:08.370Z,88.77
2023-04-28T13:02:35.313Z,88.42
2023-04-28T13:05:02.994Z,87.97
2023-04-28T13:07:30.569Z,87.73
2023-04-28T13:10:00.289Z,87.13
2023-04-28T13:12:33.496Z,86.13
2023-04-28T13:15:04.166Z,85.25
2023-04-28T13:17:31.557Z,84.59
2023-04-28T13:19:58.226Z,84.94
2023-04-28T13:22:27.271Z,85.49
2023-04-28T13:24:54.173Z,85.89
2023-04-28T13:27:23.339Z,86.45
2023-04-28T13:29:52.201Z,86.38
2023-04-28T13:32:18.896Z,86.72
2023-04-28T13:34:45.641Z,86.65
2023-04-28T13:37:15.217Z,86.52
2023-04-28T13:39:44.274Z,86.03
2023-04-28T13:42:13.282Z,85.98
2023-04-28T13:44:39.988Z,86.04
2023-04-28T13:47:09.213Z,86.29
2023-04-28T13:49:39.929Z,86.73
2023-04-28T13:52:08.857Z,86.81
2023-04-28T13:54:35.553Z,86.89
2023-04-28T13:57:03.075Z,86.86
2023-04-28T13:59:29.731Z,86.75
2023-04-28T14:01:56.340Z,86.40
2023-04-28T14:04:23.343Z,85.56
2023-04-28T14:06:50.631Z,85.16
2023-04-28T14:09:17.617Z,85.06
2023-04-28T14:11:47.689Z,85.30
2023-04-28T14:14:14.527Z,85.55
2023-04-28T14:16:44.103Z,85.76
2023-04-28T14:19:14.095Z,85.67
2023-04-28T14:21:42.644Z,85.68
2023-04-28T14:24:13.550Z,85.78
2023-04-28T14:26:40.528Z,86.02
2023-04-28T14:29:07.803Z,85.98
2023-04-28T14:31:34.779Z,86.36
2023-04-28T14:34:04.440Z,86.21
2023-04-28T14:36:33.887Z,86.50
2023-04-28T14:39:04.723Z,86.86
2023-04-28T14:41:39.194Z,87.00
2023-04-28T14:44:12.048Z,87.35
2023-04-28T14:46:40.826Z,87.56
2023-04-28T14:49:09.452Z,87.84
2023-04-28T14:51:37.497Z,87.93
2023-04-28T14:54:06.043Z,88.42
2023-04-28T14:56:33.947Z,88.16
2023-04-28T14:59:00.882Z,88.48
2023-04-28T15:01:28.302Z,88.66
2023-04-28T15:03:55.389Z,87.82
2023-04-28T15:06:24.702Z,87.25
2023-04-28T15:08:51.438Z,87.17
2023-04-28T15:11:18.795Z,87.39
2023-04-28T15:13:46.983Z,87.00
2023-04-28T15:16:13.714Z,87.02
2023-04-28T15:18:40.514Z,86.88
2023-04-28T15:21:08.839Z,87.20
2023-04-28T15:23:36.172Z,87.34
2023-04-28T15:26:05.040Z,87.74
2023-04-28T15:28:36.805Z,87.37
2023-04-28T15:31:06.398Z,87.58
2023-04-28T15:33:33.984Z,87.27
2023-04-28T15:36:02.065Z,86.92
2023-04-28T15:38:32.623Z,86.72
2023-04-28T15:41:03.488Z,86.90
2023-04-28T15:43:31.348Z,86.94
2023-04-28T15:46:01.675Z,87.57
2023-04-28T15:48:29.393Z,87.50
2023-04-28T15:50:56.968Z,87.56
2023-04-28T15:53:26.443Z,87.38
2023-04-28T15:55:54.202Z,87.60
2023-04-28T15:58:21.665Z,87.41
2023-04-28T16:00:48.492Z,87.32
2023-04-28T16:03:15.317Z,87.15
2023-04-28T16:05:43.404Z,87.24
2023-04-28T16:08:13.124Z,87.02
2023-04-28T16:10:43.047Z,86.48
2023-04-28T16:13:12.609Z,85.85
2023-04-28T16:15:43.213Z,85.81
2023-04-28T16:18:13.868Z,85.70
2023-04-28T16:20:40.646Z,85.89
2023-04-28T16:23:08.003Z,86.31
2023-04-28T16:25:36.396Z,86.34
2023-04-28T16:28:04.510Z,86.44
2023-04-28T16:30:33.286Z,86.18
2023-04-28T16:33:01.060Z,86.48
2023-04-28T16:35:31.547Z,86.14
2023-04-28T16:37:59.470Z,86.29
2023-04-28T16:40:29.428Z,86.65
2023-04-28T16:42:56.147Z,86.86
2023-04-28T16:45:23.638Z,87.33
2023-04-28T16:47:50.341Z,87.51
2023-04-28T16:50:18.358Z,87.86
2023-04-28T16:52:45.894Z,87.96
2023-04-28T16:55:15.364Z,88.23
2023-04-28T16:57:43.514Z,88.32
2023-04-28T17:00:11.976Z,88.59
2023-04-28T17:02:39.943Z,88.26
2023-04-28T17:05:07.470Z,88.23
2023-04-28T17:07:34.164Z,88.22
2023-04-28T17:10:02.900Z,88.43
2023-04-28T17:12:31.004Z,88.56
2023-04-28T17:15:03.270Z,88.92
2023-04-28T17:17:31.527Z,88.66
2023-04-28T17:20:01.893Z,89.07
2023-04-28T17:22:33.879Z,89.14
2023-04-28T17:25:01.844Z,89.28
2023-04-28T17:27:29.966Z,89.47
2023-04-28T17:29:56.766Z,89.28
2023-04-28T17:32:25.493Z,89.29
2023-04-28T17:34:53.747Z,89.48
2023-04-28T17:37:20.697Z,89.38
2023-04-28T17:39:50.182Z,89.59
2023-04-28T17:42:19.393Z,89.73
2023-04-28T17:44:46.029Z,89.53
2023-04-28T17:47:12.640Z,89.72
2023-04-28T17:49:41.970Z,89.97
2023-04-28T17:52:08.519Z,90.09
2023-04-28T17:54:35.308Z,89.98
2023-04-28T17:57:02.519Z,90.27
2023-04-28T17:59:29.133Z,90.68
2023-04-28T18:01:56.448Z,90.77
2023-04-28T18:04:26.372Z,90.78
2023-04-28T18:06:53.010Z,91.13
2023-04-28T18:09:19.536Z,91.31
2023-04-28T18:11:46.714Z,91.72
2023-04-28T18:14:15.466Z,91.95
2023-04-28T18:16:42.295Z,92.06
2023-04-28T18:19:08.953Z,92.33
2023-04-28T18:21:35.517Z,92.31
2023-04-28T18:24:02.318Z,92.59
2023-04-28T18:26:28.875Z,92.71
2023-04-28T18:28:55.626Z,92.92
2023-04-28T18:31:22.387Z,93.04
2023-04-28T18:33:52.674Z,92.97
2023-04-28T18:36:19.253Z,93.13
2023-04-28T18:38:46.075Z,93.29
2023-04-28T18:41:17.269Z,93.39
2023-04-28T18:43:44.305Z,93.56
2023-04-28T18:46:15.828Z,93.64
2023-04-28T18:48:44.795Z,93.51
2023-04-28T18:51:13.798Z,93.48
2023-04-28T18:53:40.643Z,93.61
2023-04-28T18:56:09.560Z,93.59
2023-04-28T18:58:40.893Z,93.63
2023-04-28T19:01:15.472Z,93.95
2023-04-28T19:03:45.057Z,94.00
2023-04-28T19:06:14.789Z,94.23
2023-04-28T19:08:42.846Z,94.19
2023-04-28T19:11:09.650Z,94.29
2023-04-28T19:13:37.779Z,94.54
2023-04-28T19:16:05.257Z,94.56
2023-04-28T19:18:37.108Z,94.58
2023-04-28T19:21:04.729Z,94.43
2023-04-28T19:23:34.700Z,94.79
2023-04-28T19:26:03.680Z,94.86
2023-04-28T19:28:30.793Z,94.83
2023-04-28T19:30:58.244Z,94.94
2023-04-28T19:33:28.559Z,94.77
2023-04-28T19:35:58.501Z,94.67
2023-04-28T19:38:25.243Z,94.95
2023-04-28T19:41:00.741Z,95.01
2023-04-28T19:43:30.772Z,94.93
2023-04-28T19:45:58.111Z,94.88
2023-04-28T19:48:27.381Z,94.89
2023-04-28T19:50:54.485Z,95.01
2023-04-28T19:53:24.218Z,94.81
2023-04-28T19:55:50.885Z,94.81
2023-04-28T19:58:18.382Z,94.88
2023-04-28T20:00:48.063Z,94.81
2023-04-28T20:03:14.966Z,95.02
2023-04-28T20:05:42.368Z,95.06
2023-04-28T20:08:11.184Z,94.75
2023-04-28T20:10:37.986Z,94.80
2023-04-28T20:13:07.035Z,94.75
2023-04-28T20:15:33.646Z,94.68
2023-04-28T20:18:00.516Z,94.62
2023-04-28T20:20:31.956Z,94.29
2023-04-28T20:23:00.858Z,94.39
2023-04-28T20:25:28.065Z,94.52
2023-04-28T20:27:54.694Z,94.71
2023-04-28T20:30:23.596Z,94.59
2023-04-28T20:32:50.395Z,94.58
2023-04-28T20:35:17.722Z,94.83
2023-04-28T20:37:44.368Z,94.53
2023-04-28T20:40:11.809Z,94.97
2023-04-28T20:42:38.536Z,95.07
2023-04-28T20:45:08.322Z,94.94
2023-04-28T20:47:36.496Z,94.86
2023-04-28T20:50:03.754Z,94.63
2023-04-28T20:52:33.080Z,94.36
2023-04-28T20:55:02.671Z,94.36
2023-04-28T20:57:29.697Z,94.12
2023-04-28T20:59:56.519Z,94.09
2023-04-28T21:02:23.551Z,93.37
2023-04-28T21:04:50.423Z,93.37
2023-04-28T21:07:17.751Z,93.43
2023-04-28T21:09:44.662Z,93.21
2023-04-28T21:12:11.673Z,93.06
2023-04-28T21:14:38.601Z,93.16
2023-04-28T21:17:05.391Z,92.89
2023-04-28T21:19:32.558Z,92.57
2023-04-28T21:21:59.676Z,92.41
2023-04-28T21:24:26.409Z,92.36
2023-04-28T21:26:59.850Z,92.25
2023-04-28T21:29:27.822Z,92.13
2023-04-28T21:31:57.136Z,92.03
2023-04-28T21:34:24.057Z,91.95
2023-04-28T21:36:53.092Z,91.87
2023-04-28T21:39:20.007Z,91.77
2023-04-28T21:41:46.906Z,91.68
2023-04-28T21:44:13.689Z,91.80
2023-04-28T21:46:47.817Z,91.58
2023-04-28T21:49:14.615Z,91.60
2023-04-28T21:51:46.076Z,91.55
2023-04-28T21:54:12.816Z,91.61
2023-04-28T21:56:39.689Z,91.49
2023-04-28T21:59:06.496Z,91.46
2023-04-28T22:01:33.379Z,91.34
2023-04-28T22:04:02.616Z,91.56
2023-04-28T22:06:31.546Z,91.27
2023-04-28T22:08:58.411Z,91.46
2023-04-28T22:11:25.541Z,91.67
2023-04-28T22:13:54.946Z,91.67
2023-04-28T22:16:22.229Z,91.55
2023-04-28T22:18:49.165Z,91.71
2023-04-28T22:21:16.138Z,91.70
2023-04-28T22:23:42.859Z,91.71
2023-04-28T22:26:09.749Z,91.87
2023-04-28T22:28:37.552Z,91.76
2023-04-28T22:31:04.356Z,91.96
2023-04-28T22:33:31.109Z,91.75
2023-04-28T22:35:58.123Z,91.86
2023-04-28T22:38:26.360Z,91.79
2023-04-28T22:40:53.378Z,92.03
2023-04-28T22:43:20.197Z,91.96
2023-04-28T22:45:47.030Z,91.77
2023-04-28T22:48:14.466Z,91.69
2023-04-28T22:50:41.556Z,91.99
2023-04-28T22:53:09.633Z,91.89
2023-04-28T22:55:38.909Z,91.67
2023-04-28T22:58:05.991Z,91.86
2023-04-28T23:00:33.176Z,92.15
2023-04-28T23:03:00.809Z,92.05
2023-04-28T23:05:27.731Z,91.89
2023-04-28T23:07:54.488Z,91.50
2023-04-28T23:10:23.728Z,91.52
2023-04-28T23:12:50.560Z,91.30
2023-04-28T23:15:17.509Z,91.25
2023-04-28T23:17:44.603Z,91.21
2023-04-28T23:20:12.054Z,91.26
2023-04-28T23:22:40.954Z,90.97
2023-04-28T23:25:10.569Z,91.13
2023-04-28T23:27:37.465Z,91.15
2023-04-28T23:30:04.689Z,90.96
2023-04-28T23:32:31.485Z,91.29
2023-04-28T23:35:01.166Z,91.37
2023-04-28T23:37:28.102Z,91.28
2023-04-28T23:39:54.916Z,91.45
2023-04-28T23:42:21.706Z,91.34
2023-04-28T23:44:52.915Z,91.49
2023-04-28T23:47:23.034Z,91.28
2023-04-28T23:49:52.848Z,91.58
2023-04-28T23:52:19.646Z,91.15
2023-04-28T23:54:46.583Z,91.31
2023-04-28T23:57:13.627Z,91.07
2023-04-28T23:59:40.474Z,91.23
